sensor_id;sensor_type;location;lat;lon;timestamp;P1;durP1;ratioP1;P2;durP2;ratioP2
51525;SDS011;37611;51.794;21.590;2023-05-24T00:00:03;8.10;;;6.10;;
51525;SDS011;37611;51.794;21.590;2023-05-24T00:04:33;8.70;;;6.00;;
51525;SDS011;37611;51.794;21.590;2023-05-24T00:08:35;8.60;;;6.50;;
51525;SDS011;37611;51.794;21.590;2023-05-24T00:12:36;8.00;;;6.40;;
51525;SDS011;37611;51.794;21.590;2023-05-24T00:16:38;7.60;;;6.60;;
51525;SDS011;37611;51.794;21.590;2023-05-24T00:20:40;7.60;;;6.00;;
51525;SDS011;37611;51.794;21.590;2023-05-24T00:24:41;6.90;;;6.20;;
51525;SDS011;37611;51.794;21.590;2023-05-24T00:28:43;8.90;;;6.10;;
51525;SDS011;37611;51.794;21.590;2023-05-24T00:32:45;10.50;;;6.50;;
51525;SDS011;37611;51.794;21.590;2023-05-24T00:36:46;10.40;;;6.40;;
51525;SDS011;37611;51.794;21.590;2023-05-24T00:40:48;9.60;;;6.50;;
51525;SDS011;37611;51.794;21.590;2023-05-24T00:44:50;8.40;;;6.10;;
51525;SDS011;37611;51.794;21.590;2023-05-24T00:48:51;8.00;;;5.80;;
51525;SDS011;37611;51.794;21.590;2023-05-24T00:52:54;9.40;;;6.20;;
51525;SDS011;37611;51.794;21.590;2023-05-24T00:56:58;10.50;;;7.30;;
51525;SDS011;37611;51.794;21.590;2023-05-24T01:01:00;10.50;;;6.00;;
51525;SDS011;37611;51.794;21.590;2023-05-24T01:05:03;12.20;;;7.00;;
51525;SDS011;37611;51.794;21.590;2023-05-24T01:13:26;9.80;;;6.90;;
51525;SDS011;37611;51.794;21.590;2023-05-24T01:18:19;13.50;;;7.90;;
51525;SDS011;37611;51.794;21.590;2023-05-24T01:26:52;10.90;;;7.40;;
51525;SDS011;37611;51.794;21.590;2023-05-24T01:31:03;11.40;;;6.40;;
51525;SDS011;37611;51.794;21.590;2023-05-24T01:35:06;9.70;;;5.90;;
51525;SDS011;37611;51.794;21.590;2023-05-24T01:39:08;11.70;;;6.30;;
51525;SDS011;37611;51.794;21.590;2023-05-24T01:43:14;9.30;;;5.50;;
51525;SDS011;37611;51.794;21.590;2023-05-24T01:51:52;6.70;;;5.80;;
51525;SDS011;37611;51.794;21.590;2023-05-24T01:56:00;8.00;;;5.80;;
51525;SDS011;37611;51.794;21.590;2023-05-24T02:00:03;7.20;;;6.00;;
51525;SDS011;37611;51.794;21.590;2023-05-24T02:04:07;11.00;;;6.40;;
51525;SDS011;37611;51.794;21.590;2023-05-24T02:08:09;7.60;;;5.50;;
51525;SDS011;37611;51.794;21.590;2023-05-24T02:12:11;8.70;;;6.10;;
51525;SDS011;37611;51.794;21.590;2023-05-24T02:16:13;8.00;;;6.00;;
51525;SDS011;37611;51.794;21.590;2023-05-24T02:20:16;7.70;;;5.60;;
51525;SDS011;37611;51.794;21.590;2023-05-24T02:24:17;5.80;;;5.10;;
51525;SDS011;37611;51.794;21.590;2023-05-24T02:28:19;6.50;;;5.80;;
51525;SDS011;37611;51.794;21.590;2023-05-24T02:32:21;7.70;;;6.40;;
51525;SDS011;37611;51.794;21.590;2023-05-24T02:36:23;7.70;;;6.20;;
51525;SDS011;37611;51.794;21.590;2023-05-24T02:40:25;8.00;;;6.00;;
51525;SDS011;37611;51.794;21.590;2023-05-24T02:44:26;7.40;;;6.00;;
51525;SDS011;37611;51.794;21.590;2023-05-24T02:48:28;7.80;;;5.40;;
51525;SDS011;37611;51.794;21.590;2023-05-24T02:52:29;9.90;;;6.00;;
51525;SDS011;37611;51.794;21.590;2023-05-24T02:56:31;7.50;;;5.60;;
51525;SDS011;37611;51.794;21.590;2023-05-24T03:00:34;6.60;;;5.80;;
51525;SDS011;37611;51.794;21.590;2023-05-24T03:04:37;10.90;;;5.60;;
51525;SDS011;37611;51.794;21.590;2023-05-24T03:08:39;6.20;;;5.60;;
51525;SDS011;37611;51.794;21.590;2023-05-24T03:12:41;6.00;;;5.20;;
51525;SDS011;37611;51.794;21.590;2023-05-24T03:16:43;6.50;;;5.60;;
51525;SDS011;37611;51.794;21.590;2023-05-24T03:20:45;7.50;;;5.40;;
51525;SDS011;37611;51.794;21.590;2023-05-24T03:24:46;7.60;;;5.50;;
51525;SDS011;37611;51.794;21.590;2023-05-24T03:28:49;9.60;;;5.60;;
51525;SDS011;37611;51.794;21.590;2023-05-24T03:32:54;8.90;;;5.40;;
51525;SDS011;37611;51.794;21.590;2023-05-24T03:36:56;11.30;;;6.20;;
51525;SDS011;37611;51.794;21.590;2023-05-24T03:40:58;6.20;;;5.40;;
51525;SDS011;37611;51.794;21.590;2023-05-24T03:45:00;6.70;;;5.30;;
51525;SDS011;37611;51.794;21.590;2023-05-24T03:49:02;12.30;;;5.60;;
51525;SDS011;37611;51.794;21.590;2023-05-24T03:53:04;9.40;;;5.50;;
51525;SDS011;37611;51.794;21.590;2023-05-24T03:57:06;7.30;;;5.30;;
51525;SDS011;37611;51.794;21.590;2023-05-24T04:01:07;8.00;;;5.10;;
51525;SDS011;37611;51.794;21.590;2023-05-24T04:05:09;8.20;;;5.50;;
51525;SDS011;37611;51.794;21.590;2023-05-24T04:09:11;7.60;;;5.30;;
51525;SDS011;37611;51.794;21.590;2023-05-24T04:13:13;6.80;;;4.80;;
51525;SDS011;37611;51.794;21.590;2023-05-24T04:17:14;5.90;;;5.20;;
51525;SDS011;37611;51.794;21.590;2023-05-24T04:21:17;9.40;;;5.00;;
51525;SDS011;37611;51.794;21.590;2023-05-24T04:25:19;13.40;;;5.40;;
51525;SDS011;37611;51.794;21.590;2023-05-24T04:29:21;9.40;;;5.40;;
51525;SDS011;37611;51.794;21.590;2023-05-24T04:33:22;8.50;;;5.60;;
51525;SDS011;37611;51.794;21.590;2023-05-24T04:37:24;6.00;;;4.70;;
51525;SDS011;37611;51.794;21.590;2023-05-24T04:41:26;5.80;;;4.80;;
51525;SDS011;37611;51.794;21.590;2023-05-24T04:45:29;9.80;;;8.10;;
51525;SDS011;37611;51.794;21.590;2023-05-24T04:49:33;8.40;;;6.70;;
51525;SDS011;37611;51.794;21.590;2023-05-24T04:53:34;7.80;;;7.00;;
51525;SDS011;37611;51.794;21.590;2023-05-24T04:57:36;10.90;;;8.70;;
51525;SDS011;37611;51.794;21.590;2023-05-24T05:01:38;7.60;;;6.20;;
51525;SDS011;37611;51.794;21.590;2023-05-24T05:05:40;10.20;;;5.30;;
51525;SDS011;37611;51.794;21.590;2023-05-24T05:09:42;7.70;;;5.40;;
51525;SDS011;37611;51.794;21.590;2023-05-24T05:13:44;5.70;;;4.20;;
51525;SDS011;37611;51.794;21.590;2023-05-24T05:17:46;7.40;;;5.60;;
51525;SDS011;37611;51.794;21.590;2023-05-24T05:21:47;6.50;;;5.00;;
51525;SDS011;37611;51.794;21.590;2023-05-24T05:25:49;8.80;;;5.30;;
51525;SDS011;37611;51.794;21.590;2023-05-24T05:29:51;8.40;;;4.80;;
51525;SDS011;37611;51.794;21.590;2023-05-24T05:33:53;8.00;;;5.50;;
51525;SDS011;37611;51.794;21.590;2023-05-24T05:37:54;6.70;;;5.40;;
51525;SDS011;37611;51.794;21.590;2023-05-24T05:41:56;8.50;;;5.20;;
51525;SDS011;37611;51.794;21.590;2023-05-24T05:45:58;7.80;;;4.80;;
51525;SDS011;37611;51.794;21.590;2023-05-24T05:50:01;5.60;;;4.70;;
51525;SDS011;37611;51.794;21.590;2023-05-24T05:54:03;5.90;;;4.90;;
51525;SDS011;37611;51.794;21.590;2023-05-24T05:58:05;6.60;;;5.10;;
51525;SDS011;37611;51.794;21.590;2023-05-24T06:02:07;8.50;;;5.20;;
51525;SDS011;37611;51.794;21.590;2023-05-24T06:06:09;5.50;;;4.80;;
51525;SDS011;37611;51.794;21.590;2023-05-24T06:10:10;11.20;;;4.70;;
51525;SDS011;37611;51.794;21.590;2023-05-24T06:14:15;6.40;;;5.30;;
51525;SDS011;37611;51.794;21.590;2023-05-24T06:18:21;6.60;;;4.80;;
51525;SDS011;37611;51.794;21.590;2023-05-24T06:22:23;6.70;;;5.00;;
51525;SDS011;37611;51.794;21.590;2023-05-24T06:26:25;6.70;;;4.80;;
51525;SDS011;37611;51.794;21.590;2023-05-24T06:30:27;9.70;;;5.10;;
51525;SDS011;37611;51.794;21.590;2023-05-24T06:34:29;9.40;;;4.90;;
51525;SDS011;37611;51.794;21.590;2023-05-24T06:38:31;7.90;;;5.10;;
51525;SDS011;37611;51.794;21.590;2023-05-24T06:42:33;9.00;;;4.90;;
51525;SDS011;37611;51.794;21.590;2023-05-24T06:46:35;8.50;;;5.50;;
51525;SDS011;37611;51.794;21.590;2023-05-24T06:50:37;6.80;;;4.90;;
51525;SDS011;37611;51.794;21.590;2023-05-24T06:54:39;6.90;;;4.90;;
51525;SDS011;37611;51.794;21.590;2023-05-24T06:58:41;7.10;;;5.20;;
51525;SDS011;37611;51.794;21.590;2023-05-24T07:02:43;6.50;;;5.10;;
51525;SDS011;37611;51.794;21.590;2023-05-24T07:06:44;7.30;;;5.60;;
51525;SDS011;37611;51.794;21.590;2023-05-24T07:10:46;10.20;;;4.90;;
51525;SDS011;37611;51.794;21.590;2023-05-24T07:14:48;6.70;;;4.80;;
51525;SDS011;37611;51.794;21.590;2023-05-24T07:18:50;8.40;;;5.20;;
51525;SDS011;37611;51.794;21.590;2023-05-24T07:22:52;7.60;;;4.90;;
51525;SDS011;37611;51.794;21.590;2023-05-24T07:26:53;7.00;;;5.10;;
51525;SDS011;37611;51.794;21.590;2023-05-24T07:30:57;12.60;;;5.30;;
51525;SDS011;37611;51.794;21.590;2023-05-24T07:34:59;7.50;;;5.30;;
51525;SDS011;37611;51.794;21.590;2023-05-24T07:39:01;6.80;;;5.20;;
51525;SDS011;37611;51.794;21.590;2023-05-24T07:43:05;8.30;;;5.40;;
51525;SDS011;37611;51.794;21.590;2023-05-24T07:47:07;8.30;;;5.20;;
51525;SDS011;37611;51.794;21.590;2023-05-24T07:51:08;7.80;;;5.30;;
51525;SDS011;37611;51.794;21.590;2023-05-24T07:55:10;7.20;;;5.20;;
51525;SDS011;37611;51.794;21.590;2023-05-24T07:59:12;8.10;;;4.80;;
51525;SDS011;37611;51.794;21.590;2023-05-24T08:03:14;6.00;;;5.00;;
51525;SDS011;37611;51.794;21.590;2023-05-24T08:07:17;7.00;;;5.20;;
51525;SDS011;37611;51.794;21.590;2023-05-24T08:11:19;5.90;;;5.00;;
51525;SDS011;37611;51.794;21.590;2023-05-24T08:15:21;5.80;;;5.20;;
51525;SDS011;37611;51.794;21.590;2023-05-24T08:19:23;7.90;;;4.60;;
51525;SDS011;37611;51.794;21.590;2023-05-24T08:23:24;11.60;;;4.50;;
51525;SDS011;37611;51.794;21.590;2023-05-24T08:27:27;7.90;;;4.30;;
51525;SDS011;37611;51.794;21.590;2023-05-24T08:31:32;8.70;;;5.10;;
51525;SDS011;37611;51.794;21.590;2023-05-24T08:35:34;8.30;;;4.70;;
51525;SDS011;37611;51.794;21.590;2023-05-24T08:39:36;8.40;;;4.90;;
51525;SDS011;37611;51.794;21.590;2023-05-24T08:43:38;19.10;;;5.40;;
51525;SDS011;37611;51.794;21.590;2023-05-24T08:47:39;10.80;;;4.70;;
51525;SDS011;37611;51.794;21.590;2023-05-24T08:51:43;5.50;;;5.00;;
51525;SDS011;37611;51.794;21.590;2023-05-24T08:55:45;8.00;;;4.80;;
51525;SDS011;37611;51.794;21.590;2023-05-24T08:59:47;6.20;;;4.60;;
51525;SDS011;37611;51.794;21.590;2023-05-24T09:03:50;11.20;;;5.00;;
51525;SDS011;37611;51.794;21.590;2023-05-24T09:07:51;8.80;;;5.70;;
51525;SDS011;37611;51.794;21.590;2023-05-24T09:11:56;9.40;;;5.30;;
51525;SDS011;37611;51.794;21.590;2023-05-24T09:16:02;9.50;;;4.40;;
51525;SDS011;37611;51.794;21.590;2023-05-24T09:20:07;5.70;;;4.20;;
51525;SDS011;37611;51.794;21.590;2023-05-24T09:24:10;6.30;;;4.40;;
51525;SDS011;37611;51.794;21.590;2023-05-24T09:28:16;11.90;;;5.20;;
51525;SDS011;37611;51.794;21.590;2023-05-24T09:32:21;6.70;;;4.70;;
51525;SDS011;37611;51.794;21.590;2023-05-24T09:36:24;6.20;;;4.40;;
51525;SDS011;37611;51.794;21.590;2023-05-24T09:40:30;7.70;;;4.60;;
51525;SDS011;37611;51.794;21.590;2023-05-24T09:44:31;8.30;;;4.80;;
51525;SDS011;37611;51.794;21.590;2023-05-24T09:48:33;5.20;;;4.70;;
51525;SDS011;37611;51.794;21.590;2023-05-24T09:52:35;8.40;;;4.70;;
51525;SDS011;37611;51.794;21.590;2023-05-24T09:56:37;8.00;;;4.50;;
51525;SDS011;37611;51.794;21.590;2023-05-24T10:00:40;6.20;;;4.10;;
51525;SDS011;37611;51.794;21.590;2023-05-24T10:04:42;4.50;;;4.10;;
51525;SDS011;37611;51.794;21.590;2023-05-24T10:08:44;5.40;;;4.20;;
51525;SDS011;37611;51.794;21.590;2023-05-24T10:12:48;6.20;;;4.40;;
51525;SDS011;37611;51.794;21.590;2023-05-24T10:16:52;9.90;;;4.60;;
51525;SDS011;37611;51.794;21.590;2023-05-24T10:20:54;5.80;;;3.80;;
51525;SDS011;37611;51.794;21.590;2023-05-24T10:24:59;4.20;;;3.80;;
51525;SDS011;37611;51.794;21.590;2023-05-24T10:29:03;11.10;;;4.40;;
51525;SDS011;37611;51.794;21.590;2023-05-24T10:33:11;5.00;;;4.20;;
51525;SDS011;37611;51.794;21.590;2023-05-24T10:37:15;6.90;;;4.30;;
51525;SDS011;37611;51.794;21.590;2023-05-24T10:41:18;4.70;;;4.10;;
51525;SDS011;37611;51.794;21.590;2023-05-24T10:54:12;5.70;;;3.90;;
51525;SDS011;37611;51.794;21.590;2023-05-24T10:58:14;8.10;;;4.60;;
51525;SDS011;37611;51.794;21.590;2023-05-24T11:02:16;5.70;;;4.40;;
51525;SDS011;37611;51.794;21.590;2023-05-24T11:06:43;7.60;;;4.30;;
51525;SDS011;37611;51.794;21.590;2023-05-24T11:11:10;7.40;;;4.70;;
51525;SDS011;37611;51.794;21.590;2023-05-24T11:15:13;6.70;;;4.00;;
51525;SDS011;37611;51.794;21.590;2023-05-24T11:19:35;12.20;;;3.90;;
51525;SDS011;37611;51.794;21.590;2023-05-24T11:23:46;17.20;;;4.60;;
51525;SDS011;37611;51.794;21.590;2023-05-24T11:27:49;13.90;;;4.20;;
51525;SDS011;37611;51.794;21.590;2023-05-24T11:31:55;7.10;;;4.00;;
51525;SDS011;37611;51.794;21.590;2023-05-24T11:36:17;8.70;;;4.10;;
51525;SDS011;37611;51.794;21.590;2023-05-24T11:40:20;9.00;;;4.00;;
51525;SDS011;37611;51.794;21.590;2023-05-24T11:44:22;8.20;;;4.50;;
51525;SDS011;37611;51.794;21.590;2023-05-24T11:48:24;6.80;;;3.80;;
51525;SDS011;37611;51.794;21.590;2023-05-24T11:52:26;6.20;;;4.20;;
51525;SDS011;37611;51.794;21.590;2023-05-24T11:56:29;6.20;;;3.70;;
51525;SDS011;37611;51.794;21.590;2023-05-24T12:00:31;9.70;;;3.90;;
51525;SDS011;37611;51.794;21.590;2023-05-24T12:04:34;9.80;;;4.50;;
51525;SDS011;37611;51.794;21.590;2023-05-24T12:08:36;8.60;;;4.70;;
51525;SDS011;37611;51.794;21.590;2023-05-24T12:12:41;9.30;;;5.10;;
51525;SDS011;37611;51.794;21.590;2023-05-24T12:16:47;7.40;;;4.60;;
51525;SDS011;37611;51.794;21.590;2023-05-24T12:20:49;7.60;;;5.00;;
51525;SDS011;37611;51.794;21.590;2023-05-24T12:24:52;9.00;;;5.00;;
51525;SDS011;37611;51.794;21.590;2023-05-24T12:28:53;11.40;;;5.40;;
51525;SDS011;37611;51.794;21.590;2023-05-24T12:32:55;6.90;;;5.20;;
51525;SDS011;37611;51.794;21.590;2023-05-24T12:36:58;9.50;;;5.10;;
51525;SDS011;37611;51.794;21.590;2023-05-24T12:41:00;8.00;;;5.30;;
51525;SDS011;37611;51.794;21.590;2023-05-24T12:45:02;7.50;;;5.30;;
51525;SDS011;37611;51.794;21.590;2023-05-24T12:49:04;7.90;;;5.60;;
51525;SDS011;37611;51.794;21.590;2023-05-24T12:53:05;8.90;;;5.50;;
51525;SDS011;37611;51.794;21.590;2023-05-24T12:57:07;6.70;;;5.20;;
51525;SDS011;37611;51.794;21.590;2023-05-24T13:01:09;7.60;;;5.60;;
51525;SDS011;37611;51.794;21.590;2023-05-24T13:05:11;13.20;;;6.10;;
51525;SDS011;37611;51.794;21.590;2023-05-24T13:09:13;8.10;;;6.10;;
51525;SDS011;37611;51.794;21.590;2023-05-24T13:13:16;10.20;;;6.90;;
51525;SDS011;37611;51.794;21.590;2023-05-24T13:17:18;11.90;;;7.40;;
51525;SDS011;37611;51.794;21.590;2023-05-24T13:21:20;14.70;;;7.20;;
51525;SDS011;37611;51.794;21.590;2023-05-24T13:25:22;8.90;;;6.90;;
51525;SDS011;37611;51.794;21.590;2023-05-24T13:29:24;10.30;;;6.40;;
51525;SDS011;37611;51.794;21.590;2023-05-24T13:33:26;7.60;;;6.30;;
51525;SDS011;37611;51.794;21.590;2023-05-24T13:37:28;7.20;;;5.80;;
51525;SDS011;37611;51.794;21.590;2023-05-24T13:41:30;9.90;;;6.80;;
51525;SDS011;37611;51.794;21.590;2023-05-24T13:45:33;11.30;;;7.20;;
51525;SDS011;37611;51.794;21.590;2023-05-24T13:49:34;12.10;;;8.30;;
51525;SDS011;37611;51.794;21.590;2023-05-24T13:53:36;10.50;;;7.00;;
51525;SDS011;37611;51.794;21.590;2023-05-24T13:57:38;9.00;;;6.50;;
51525;SDS011;37611;51.794;21.590;2023-05-24T14:01:40;9.90;;;6.90;;
51525;SDS011;37611;51.794;21.590;2023-05-24T14:05:42;8.10;;;7.30;;
51525;SDS011;37611;51.794;21.590;2023-05-24T14:09:44;8.00;;;7.20;;
51525;SDS011;37611;51.794;21.590;2023-05-24T14:13:47;7.70;;;6.30;;
51525;SDS011;37611;51.794;21.590;2023-05-24T14:17:49;7.00;;;6.00;;
51525;SDS011;37611;51.794;21.590;2023-05-24T14:21:50;7.50;;;6.80;;
51525;SDS011;37611;51.794;21.590;2023-05-24T14:25:52;7.50;;;6.30;;
51525;SDS011;37611;51.794;21.590;2023-05-24T14:29:54;10.30;;;7.50;;
51525;SDS011;37611;51.794;21.590;2023-05-24T14:33:56;7.10;;;6.30;;
51525;SDS011;37611;51.794;21.590;2023-05-24T14:37:57;8.40;;;6.80;;
51525;SDS011;37611;51.794;21.590;2023-05-24T14:41:59;9.70;;;6.70;;
51525;SDS011;37611;51.794;21.590;2023-05-24T14:46:01;8.40;;;6.60;;
51525;SDS011;37611;51.794;21.590;2023-05-24T14:50:03;8.40;;;5.90;;
51525;SDS011;37611;51.794;21.590;2023-05-24T14:54:05;8.80;;;6.10;;
51525;SDS011;37611;51.794;21.590;2023-05-24T14:58:07;8.50;;;6.50;;
51525;SDS011;37611;51.794;21.590;2023-05-24T15:02:14;8.60;;;6.40;;
51525;SDS011;37611;51.794;21.590;2023-05-24T15:06:16;8.10;;;6.40;;
51525;SDS011;37611;51.794;21.590;2023-05-24T15:10:18;7.10;;;5.80;;
51525;SDS011;37611;51.794;21.590;2023-05-24T15:14:20;6.90;;;5.60;;
51525;SDS011;37611;51.794;21.590;2023-05-24T15:18:22;6.80;;;5.30;;
51525;SDS011;37611;51.794;21.590;2023-05-24T15:22:25;7.20;;;5.40;;
51525;SDS011;37611;51.794;21.590;2023-05-24T15:26:27;10.70;;;5.70;;
51525;SDS011;37611;51.794;21.590;2023-05-24T15:30:29;8.90;;;6.20;;
51525;SDS011;37611;51.794;21.590;2023-05-24T15:34:31;7.10;;;6.00;;
51525;SDS011;37611;51.794;21.590;2023-05-24T15:38:33;10.40;;;7.30;;
51525;SDS011;37611;51.794;21.590;2023-05-24T15:42:35;7.40;;;6.60;;
51525;SDS011;37611;51.794;21.590;2023-05-24T15:46:38;7.50;;;6.30;;
51525;SDS011;37611;51.794;21.590;2023-05-24T15:50:41;9.30;;;6.30;;
51525;SDS011;37611;51.794;21.590;2023-05-24T15:54:43;8.20;;;6.30;;
51525;SDS011;37611;51.794;21.590;2023-05-24T15:58:44;8.10;;;5.80;;
51525;SDS011;37611;51.794;21.590;2023-05-24T16:02:46;6.30;;;5.60;;
51525;SDS011;37611;51.794;21.590;2023-05-24T16:06:48;10.00;;;5.70;;
51525;SDS011;37611;51.794;21.590;2023-05-24T16:10:50;9.80;;;6.00;;
51525;SDS011;37611;51.794;21.590;2023-05-24T16:14:51;6.70;;;5.60;;
51525;SDS011;37611;51.794;21.590;2023-05-24T16:18:53;9.50;;;5.70;;
51525;SDS011;37611;51.794;21.590;2023-05-24T16:22:56;9.20;;;6.10;;
51525;SDS011;37611;51.794;21.590;2023-05-24T16:26:58;8.40;;;6.80;;
51525;SDS011;37611;51.794;21.590;2023-05-24T16:31:00;8.20;;;6.20;;
51525;SDS011;37611;51.794;21.590;2023-05-24T16:35:03;9.30;;;6.00;;
51525;SDS011;37611;51.794;21.590;2023-05-24T16:39:05;7.00;;;5.70;;
51525;SDS011;37611;51.794;21.590;2023-05-24T16:43:07;5.80;;;5.20;;
51525;SDS011;37611;51.794;21.590;2023-05-24T16:47:09;9.40;;;6.00;;
51525;SDS011;37611;51.794;21.590;2023-05-24T16:51:11;8.30;;;5.60;;
51525;SDS011;37611;51.794;21.590;2023-05-24T16:55:12;10.50;;;5.90;;
51525;SDS011;37611;51.794;21.590;2023-05-24T16:59:16;8.30;;;6.30;;
51525;SDS011;37611;51.794;21.590;2023-05-24T17:03:17;7.30;;;6.00;;
51525;SDS011;37611;51.794;21.590;2023-05-24T17:07:22;7.10;;;6.10;;
51525;SDS011;37611;51.794;21.590;2023-05-24T17:11:23;7.40;;;5.80;;
51525;SDS011;37611;51.794;21.590;2023-05-24T17:15:25;6.30;;;5.70;;
51525;SDS011;37611;51.794;21.590;2023-05-24T17:19:27;8.90;;;5.90;;
51525;SDS011;37611;51.794;21.590;2023-05-24T17:23:29;8.40;;;6.10;;
51525;SDS011;37611;51.794;21.590;2023-05-24T17:27:32;9.00;;;6.50;;
51525;SDS011;37611;51.794;21.590;2023-05-24T17:31:34;8.70;;;7.20;;
51525;SDS011;37611;51.794;21.590;2023-05-24T17:35:37;7.80;;;7.00;;
51525;SDS011;37611;51.794;21.590;2023-05-24T17:39:39;8.60;;;7.20;;
51525;SDS011;37611;51.794;21.590;2023-05-24T17:43:41;8.40;;;6.80;;
51525;SDS011;37611;51.794;21.590;2023-05-24T17:47:43;7.50;;;6.00;;
51525;SDS011;37611;51.794;21.590;2023-05-24T17:51:44;9.50;;;6.70;;
51525;SDS011;37611;51.794;21.590;2023-05-24T17:55:46;11.80;;;9.60;;
51525;SDS011;37611;51.794;21.590;2023-05-24T17:59:48;7.50;;;6.00;;
51525;SDS011;37611;51.794;21.590;2023-05-24T18:03:49;7.00;;;6.00;;
51525;SDS011;37611;51.794;21.590;2023-05-24T18:07:51;8.20;;;6.80;;
51525;SDS011;37611;51.794;21.590;2023-05-24T18:11:53;7.20;;;6.50;;
51525;SDS011;37611;51.794;21.590;2023-05-24T18:15:55;10.10;;;6.60;;
51525;SDS011;37611;51.794;21.590;2023-05-24T18:19:57;9.40;;;7.70;;
51525;SDS011;37611;51.794;21.590;2023-05-24T18:23:59;12.20;;;10.40;;
51525;SDS011;37611;51.794;21.590;2023-05-24T18:28:00;12.50;;;9.00;;
51525;SDS011;37611;51.794;21.590;2023-05-24T18:32:03;10.10;;;7.80;;
51525;SDS011;37611;51.794;21.590;2023-05-24T18:36:05;8.10;;;7.20;;
51525;SDS011;37611;51.794;21.590;2023-05-24T18:40:07;11.20;;;7.60;;
51525;SDS011;37611;51.794;21.590;2023-05-24T18:44:09;7.60;;;6.90;;
51525;SDS011;37611;51.794;21.590;2023-05-24T18:48:11;8.20;;;7.20;;
51525;SDS011;37611;51.794;21.590;2023-05-24T18:52:13;10.70;;;7.60;;
51525;SDS011;37611;51.794;21.590;2023-05-24T18:56:15;10.80;;;7.90;;
51525;SDS011;37611;51.794;21.590;2023-05-24T19:00:16;8.20;;;7.40;;
51525;SDS011;37611;51.794;21.590;2023-05-24T19:04:24;9.60;;;8.10;;
51525;SDS011;37611;51.794;21.590;2023-05-24T19:08:26;13.00;;;8.70;;
51525;SDS011;37611;51.794;21.590;2023-05-24T19:12:28;11.00;;;9.10;;
51525;SDS011;37611;51.794;21.590;2023-05-24T19:16:30;10.00;;;9.00;;
51525;SDS011;37611;51.794;21.590;2023-05-24T19:20:32;10.10;;;8.70;;
51525;SDS011;37611;51.794;21.590;2023-05-24T19:24:33;13.40;;;9.70;;
51525;SDS011;37611;51.794;21.590;2023-05-24T19:28:35;13.80;;;11.30;;
51525;SDS011;37611;51.794;21.590;2023-05-24T19:32:40;15.90;;;12.40;;
51525;SDS011;37611;51.794;21.590;2023-05-24T19:36:43;13.30;;;10.10;;
51525;SDS011;37611;51.794;21.590;2023-05-24T19:40:45;11.80;;;10.60;;
51525;SDS011;37611;51.794;21.590;2023-05-24T19:44:46;12.70;;;10.10;;
51525;SDS011;37611;51.794;21.590;2023-05-24T19:48:48;10.60;;;9.50;;
51525;SDS011;37611;51.794;21.590;2023-05-24T19:52:50;12.50;;;11.20;;
51525;SDS011;37611;51.794;21.590;2023-05-24T19:56:51;20.10;;;18.20;;
51525;SDS011;37611;51.794;21.590;2023-05-24T20:00:55;39.30;;;35.00;;
51525;SDS011;37611;51.794;21.590;2023-05-24T20:04:57;17.80;;;16.20;;
51525;SDS011;37611;51.794;21.590;2023-05-24T20:08:58;20.20;;;17.00;;
51525;SDS011;37611;51.794;21.590;2023-05-24T20:13:01;14.20;;;12.70;;
51525;SDS011;37611;51.794;21.590;2023-05-24T20:17:04;13.20;;;11.80;;
51525;SDS011;37611;51.794;21.590;2023-05-24T20:21:06;12.80;;;11.60;;
51525;SDS011;37611;51.794;21.590;2023-05-24T20:25:07;13.30;;;11.90;;
51525;SDS011;37611;51.794;21.590;2023-05-24T20:29:09;19.50;;;17.40;;
51525;SDS011;37611;51.794;21.590;2023-05-24T20:33:11;16.50;;;15.00;;
51525;SDS011;37611;51.794;21.590;2023-05-24T20:37:15;19.40;;;16.80;;
51525;SDS011;37611;51.794;21.590;2023-05-24T20:41:17;14.70;;;13.20;;
51525;SDS011;37611;51.794;21.590;2023-05-24T20:45:25;15.90;;;13.90;;
51525;SDS011;37611;51.794;21.590;2023-05-24T20:49:29;43.60;;;39.00;;
51525;SDS011;37611;51.794;21.590;2023-05-24T20:53:33;17.40;;;15.60;;
51525;SDS011;37611;51.794;21.590;2023-05-24T20:57:40;14.80;;;12.60;;
51525;SDS011;37611;51.794;21.590;2023-05-24T21:01:51;13.10;;;11.70;;
51525;SDS011;37611;51.794;21.590;2023-05-24T21:05:55;16.80;;;15.20;;
51525;SDS011;37611;51.794;21.590;2023-05-24T21:09:56;14.10;;;12.70;;
51525;SDS011;37611;51.794;21.590;2023-05-24T21:13:58;17.60;;;13.70;;
51525;SDS011;37611;51.794;21.590;2023-05-24T21:18:04;15.20;;;13.70;;
51525;SDS011;37611;51.794;21.590;2023-05-24T21:22:06;15.50;;;14.00;;
51525;SDS011;37611;51.794;21.590;2023-05-24T21:26:07;16.70;;;13.20;;
51525;SDS011;37611;51.794;21.590;2023-05-24T21:30:10;14.30;;;13.00;;
51525;SDS011;37611;51.794;21.590;2023-05-24T21:34:12;14.90;;;13.40;;
51525;SDS011;37611;51.794;21.590;2023-05-24T21:38:14;15.50;;;14.00;;
51525;SDS011;37611;51.794;21.590;2023-05-24T21:42:19;14.20;;;12.70;;
51525;SDS011;37611;51.794;21.590;2023-05-24T21:46:20;14.80;;;13.50;;
51525;SDS011;37611;51.794;21.590;2023-05-24T21:50:22;25.10;;;22.60;;
51525;SDS011;37611;51.794;21.590;2023-05-24T21:54:29;17.20;;;14.00;;
51525;SDS011;37611;51.794;21.590;2023-05-24T21:58:37;17.10;;;15.60;;
51525;SDS011;37611;51.794;21.590;2023-05-24T22:02:42;18.70;;;17.10;;
51525;SDS011;37611;51.794;21.590;2023-05-24T22:06:44;16.40;;;14.80;;
51525;SDS011;37611;51.794;21.590;2023-05-24T22:10:46;17.00;;;15.30;;
51525;SDS011;37611;51.794;21.590;2023-05-24T22:14:49;16.90;;;15.40;;
51525;SDS011;37611;51.794;21.590;2023-05-24T22:18:52;60.70;;;54.40;;
51525;SDS011;37611;51.794;21.590;2023-05-24T22:22:55;20.90;;;18.90;;
51525;SDS011;37611;51.794;21.590;2023-05-24T22:26:59;24.50;;;21.90;;
51525;SDS011;37611;51.794;21.590;2023-05-24T22:31:02;26.60;;;24.00;;
51525;SDS011;37611;51.794;21.590;2023-05-24T22:35:08;19.40;;;17.60;;
51525;SDS011;37611;51.794;21.590;2023-05-24T22:39:10;17.80;;;15.30;;
51525;SDS011;37611;51.794;21.590;2023-05-24T22:43:12;16.20;;;14.70;;
51525;SDS011;37611;51.794;21.590;2023-05-24T22:47:14;16.90;;;15.20;;
51525;SDS011;37611;51.794;21.590;2023-05-24T22:51:17;84.90;;;67.80;;
51525;SDS011;37611;51.794;21.590;2023-05-24T22:55:20;100.10;;;88.60;;
51525;SDS011;37611;51.794;21.590;2023-05-24T22:59:23;53.60;;;48.40;;
51525;SDS011;37611;51.794;21.590;2023-05-24T23:03:28;24.70;;;22.50;;
51525;SDS011;37611;51.794;21.590;2023-05-24T23:07:32;22.60;;;20.70;;
51525;SDS011;37611;51.794;21.590;2023-05-24T23:11:34;19.60;;;17.70;;
51525;SDS011;37611;51.794;21.590;2023-05-24T23:15:36;18.20;;;16.50;;
51525;SDS011;37611;51.794;21.590;2023-05-24T23:19:44;18.10;;;16.30;;
51525;SDS011;37611;51.794;21.590;2023-05-24T23:23:46;17.60;;;15.70;;
51525;SDS011;37611;51.794;21.590;2023-05-24T23:27:49;17.90;;;16.20;;
51525;SDS011;37611;51.794;21.590;2023-05-24T23:31:51;17.30;;;15.50;;
51525;SDS011;37611;51.794;21.590;2023-05-24T23:35:52;18.60;;;16.80;;
51525;SDS011;37611;51.794;21.590;2023-05-24T23:39:55;18.30;;;16.60;;
51525;SDS011;37611;51.794;21.590;2023-05-24T23:44:02;18.50;;;16.70;;
51525;SDS011;37611;51.794;21.590;2023-05-24T23:48:04;18.10;;;16.30;;
51525;SDS011;37611;51.794;21.590;2023-05-24T23:52:08;20.00;;;18.10;;
51525;SDS011;37611;51.794;21.590;2023-05-24T23:56:10;20.10;;;18.10;;
